BAW223 VHHH-RPLL
Flight info
| Callsign | BAW223 |
|---|---|
| Flight time | N/A |
| Altitude | 39000 |
| Route | DALOL V642 NOMAN A461 AVMUP W16 TADEL TADEL3R |
| Aircraft | A20N/M-SDE2E3FGHIRWXY/LB1 |
Departure
| Time | 2026-05-04 16:39 |
|---|---|
| Airport | Hong Kong International Airport (VHHH) |
Arrival
| Time | N/A |
|---|---|
| Airport | Ninoy Aquino International Airport (RPLL) |
| Time | Latitude | Longitude | Altitude | Speed | Heading |
|---|---|---|---|---|---|
| 2026-05-04 16:19 | 22.31070 | 113.92574 | 33 ft | 0 kts | 112° |
| 2026-05-04 16:22 | 22.31070 | 113.92573 | 33 ft | 1 kts | 112° |
| 2026-05-04 16:23 | 22.31089 | 113.92529 | 33 ft | 2 kts | 116° |
| 2026-05-04 16:24 | 22.31125 | 113.92482 | 33 ft | 2 kts | 177° |
| 2026-05-04 16:25 | 22.31140 | 113.92484 | 33 ft | 1 kts | 202° |
| 2026-05-04 16:26 | 22.31108 | 113.92468 | 33 ft | 0 kts | 206° |
| 2026-05-04 16:28 | 22.31054 | 113.92441 | 33 ft | 5 kts | 205° |
| 2026-05-04 16:29 | 22.30858 | 113.92338 | 33 ft | 9 kts | 206° |
| 2026-05-04 16:30 | 22.30638 | 113.92359 | 33 ft | 12 kts | 226° |
| 2026-05-04 16:31 | 22.30566 | 113.92159 | 33 ft | 19 kts | 250° |
| 2026-05-04 16:31 | 22.30397 | 113.91631 | 33 ft | 24 kts | 251° |
| 2026-05-04 16:32 | 22.30232 | 113.91123 | 33 ft | 23 kts | 250° |
| 2026-05-04 16:33 | 22.30117 | 113.90768 | 33 ft | 30 kts | 251° |
| 2026-05-04 16:33 | 22.29961 | 113.90281 | 33 ft | 30 kts | 251° |
| 2026-05-04 16:34 | 22.29841 | 113.89907 | 33 ft | 17 kts | 250° |
| 2026-05-04 16:34 | 22.29806 | 113.89799 | 33 ft | 13 kts | 246° |
| 2026-05-04 16:35 | 22.29743 | 113.89769 | 33 ft | 3 kts | 168° |
| 2026-05-04 16:35 | 22.29669 | 113.89947 | 33 ft | 12 kts | 71° |
| 2026-05-04 16:36 | 22.29682 | 113.89986 | 33 ft | 0 kts | 71° |
| 2026-05-04 16:36 | 22.29690 | 113.90012 | 33 ft | 7 kts | 72° |
| 2026-05-04 16:37 | 22.29723 | 113.90115 | 33 ft | 0 kts | 71° |
| 2026-05-04 16:37 | 22.29818 | 113.90415 | 33 ft | 81 kts | 70° |
| 2026-05-04 16:38 | 22.30446 | 113.92345 | 570 ft | 159 kts | 73° |
| 2026-05-04 16:39 | 22.31477 | 113.95699 | 2676 ft | 173 kts | 70° |
| 2026-05-04 16:39 | 22.32216 | 113.97946 | 3454 ft | 209 kts | 70° |
| 2026-05-04 16:40 | 22.33367 | 114.01499 | 5243 ft | 229 kts | 69° |
| 2026-05-04 16:40 | 22.33393 | 114.04828 | 6938 ft | 246 kts | 117° |
| 2026-05-04 16:41 | 22.31049 | 114.07596 | 8673 ft | 258 kts | 136° |
| 2026-05-04 16:41 | 22.25911 | 114.08890 | 11283 ft | 268 kts | 184° |
| 2026-05-04 16:42 | 22.20099 | 114.08665 | 13303 ft | 300 kts | 182° |
| 2026-05-04 16:43 | 22.15925 | 114.09898 | 14103 ft | 339 kts | 140° |
| 2026-05-04 16:43 | 22.13310 | 114.14248 | 15533 ft | 351 kts | 115° |
| 2026-05-04 16:43 | 22.12237 | 114.16623 | 16309 ft | 356 kts | 115° |
| 2026-05-04 16:44 | 22.07359 | 114.26104 | 19229 ft | 372 kts | 130° |
| 2026-05-04 16:45 | 22.03392 | 114.29723 | 20601 ft | 380 kts | 143° |
| 2026-05-04 16:46 | 21.96852 | 114.34781 | 22513 ft | 391 kts | 143° |
| 2026-05-04 16:46 | 21.92427 | 114.38261 | 23712 ft | 398 kts | 143° |
| 2026-05-04 16:47 | 21.87904 | 114.41824 | 24847 ft | 404 kts | 142° |
| 2026-05-04 16:47 | 21.84340 | 114.46426 | 25872 ft | 407 kts | 113° |
| 2026-05-04 16:48 | 21.81919 | 114.55242 | 27364 ft | 413 kts | 103° |
| 2026-05-04 16:48 | 21.81169 | 114.58253 | 27827 ft | 416 kts | 103° |
| 2026-05-04 16:49 | 21.79626 | 114.64307 | 28726 ft | 421 kts | 103° |
| 2026-05-04 16:49 | 21.78054 | 114.70389 | 29570 ft | 426 kts | 104° |
| 2026-05-04 16:50 | 21.76424 | 114.76577 | 30372 ft | 431 kts | 106° |
| 2026-05-04 16:50 | 21.74281 | 114.82633 | 31196 ft | 435 kts | 113° |
| 2026-05-04 16:51 | 21.71445 | 114.88337 | 32229 ft | 433 kts | 120° |
| 2026-05-04 16:51 | 21.69773 | 114.91042 | 32705 ft | 432 kts | 124° |
| 2026-05-04 16:51 | 21.66182 | 114.96162 | 33579 ft | 430 kts | 126° |
| 2026-05-04 16:52 | 21.62562 | 115.01257 | 34427 ft | 426 kts | 126° |
| 2026-05-04 16:52 | 21.60750 | 115.03810 | 34849 ft | 424 kts | 126° |
| 2026-05-04 16:53 | 21.57196 | 115.08815 | 35632 ft | 421 kts | 126° |
| 2026-05-04 16:53 | 21.51909 | 115.16254 | 36625 ft | 417 kts | 126° |
| 2026-05-04 16:54 | 21.50112 | 115.18781 | 36740 ft | 422 kts | 126° |
| 2026-05-04 16:55 | 21.42961 | 115.28825 | 37033 ft | 425 kts | 126° |
| 2026-05-04 16:55 | 21.39366 | 115.33868 | 37035 ft | 425 kts | 126° |
| 2026-05-04 16:56 | 21.30353 | 115.46493 | 37035 ft | 425 kts | 126° |
| 2026-05-04 16:57 | 21.24348 | 115.53492 | 37035 ft | 427 kts | 133° |
| 2026-05-04 16:58 | 21.16060 | 115.62453 | 37035 ft | 427 kts | 133° |
| 2026-05-04 17:00 | 21.03555 | 115.76063 | 37035 ft | 428 kts | 133° |
| 2026-05-04 17:01 | 20.93136 | 115.87385 | 37035 ft | 429 kts | 134° |
| 2026-05-04 17:02 | 20.84774 | 115.96455 | 37035 ft | 429 kts | 133° |
| 2026-05-04 17:03 | 20.78466 | 116.03286 | 37037 ft | 429 kts | 134° |
| 2026-05-04 17:03 | 20.72164 | 116.10055 | 37037 ft | 429 kts | 134° |
| 2026-05-04 17:04 | 20.63751 | 116.19076 | 37037 ft | 429 kts | 134° |
| 2026-05-04 17:05 | 20.55337 | 116.28088 | 37047 ft | 429 kts | 134° |
| 2026-05-04 17:06 | 20.49007 | 116.34858 | 37062 ft | 429 kts | 134° |
| 2026-05-04 17:07 | 20.43378 | 116.40873 | 37060 ft | 429 kts | 134° |
| 2026-05-04 17:07 | 20.38439 | 116.46144 | 36999 ft | 429 kts | 134° |
| 2026-05-04 17:08 | 20.32065 | 116.52940 | 36965 ft | 430 kts | 134° |
| 2026-05-04 17:09 | 20.27827 | 116.57455 | 36958 ft | 430 kts | 134° |
| 2026-05-04 17:09 | 20.23601 | 116.61951 | 36955 ft | 430 kts | 134° |
| 2026-05-04 17:10 | 20.13018 | 116.73202 | 36954 ft | 430 kts | 134° |
| 2026-05-04 17:11 | 20.08781 | 116.77698 | 36954 ft | 430 kts | 134° |
| 2026-05-04 17:12 | 20.02426 | 116.84425 | 36954 ft | 430 kts | 134° |
| 2026-05-04 17:13 | 19.91870 | 116.95593 | 36955 ft | 425 kts | 134° |
| 2026-05-04 17:14 | 19.83594 | 117.04343 | 36955 ft | 416 kts | 135° |
| 2026-05-04 17:15 | 19.77462 | 117.10821 | 36954 ft | 411 kts | 136° |
| 2026-05-04 17:16 | 19.69375 | 117.19333 | 36954 ft | 410 kts | 136° |
| 2026-05-04 17:16 | 19.63231 | 117.25791 | 36956 ft | 424 kts | 136° |
| 2026-05-04 17:17 | 19.61131 | 117.27998 | 36957 ft | 429 kts | 136° |
| 2026-05-04 17:17 | 19.54686 | 117.34767 | 36956 ft | 442 kts | 136° |
| 2026-05-04 17:18 | 19.52514 | 117.37046 | 36956 ft | 445 kts | 136° |
| 2026-05-04 17:19 | 19.43704 | 117.46285 | 36954 ft | 447 kts | 136° |
| 2026-05-04 17:20 | 19.34867 | 117.55539 | 36954 ft | 447 kts | 136° |
| 2026-05-04 17:20 | 19.28270 | 117.62437 | 36954 ft | 447 kts | 136° |
| 2026-05-04 17:21 | 19.19434 | 117.71664 | 36954 ft | 447 kts | 136° |
| 2026-05-04 17:22 | 19.14993 | 117.76297 | 36954 ft | 447 kts | 136° |
| 2026-05-04 17:23 | 19.06150 | 117.85511 | 36974 ft | 447 kts | 136° |
| 2026-05-04 17:24 | 18.99533 | 117.92394 | 36979 ft | 448 kts | 136° |
| 2026-05-04 17:25 | 18.90620 | 118.01665 | 36979 ft | 452 kts | 135° |
| 2026-05-04 17:26 | 18.81623 | 118.11018 | 36978 ft | 455 kts | 135° |
| 2026-05-04 17:27 | 18.70384 | 118.22678 | 36962 ft | 455 kts | 135° |
| 2026-05-04 17:28 | 18.61379 | 118.32001 | 36954 ft | 455 kts | 135° |
| 2026-05-04 17:29 | 18.47984 | 118.45844 | 36954 ft | 455 kts | 135° |
| 2026-05-04 17:31 | 18.36703 | 118.57477 | 36954 ft | 455 kts | 135° |
| 2026-05-04 17:32 | 18.25429 | 118.69082 | 36954 ft | 455 kts | 135° |
| 2026-05-04 17:33 | 18.16401 | 118.78359 | 36954 ft | 455 kts | 135° |
| 2026-05-04 17:34 | 18.07386 | 118.87610 | 36954 ft | 452 kts | 135° |
| 2026-05-04 17:35 | 17.95322 | 118.98049 | 36954 ft | 451 kts | 146° |
| 2026-05-04 17:36 | 17.89921 | 119.01313 | 36955 ft | 451 kts | 149° |
| 2026-05-04 17:36 | 17.84433 | 119.04497 | 36954 ft | 450 kts | 149° |
| 2026-05-04 17:37 | 17.78989 | 119.07653 | 36954 ft | 450 kts | 149° |
| 2026-05-04 17:37 | 17.73509 | 119.10827 | 36954 ft | 450 kts | 149° |
| 2026-05-04 17:38 | 17.68039 | 119.13993 | 36954 ft | 450 kts | 149° |
| 2026-05-04 17:38 | 17.62583 | 119.17148 | 36954 ft | 450 kts | 149° |
| 2026-05-04 17:39 | 17.54375 | 119.21888 | 36953 ft | 450 kts | 149° |
| 2026-05-04 17:39 | 17.48934 | 119.25030 | 36954 ft | 450 kts | 149° |
| 2026-05-04 17:40 | 17.43464 | 119.28190 | 36954 ft | 450 kts | 149° |
| 2026-05-04 17:40 | 17.38010 | 119.31336 | 36954 ft | 450 kts | 149° |
| 2026-05-04 17:41 | 17.32521 | 119.34499 | 36954 ft | 450 kts | 149° |
| 2026-05-04 17:41 | 17.27072 | 119.37636 | 36954 ft | 450 kts | 149° |
| 2026-05-04 17:42 | 17.21611 | 119.40778 | 36954 ft | 450 kts | 149° |
| 2026-05-04 17:42 | 17.16146 | 119.43919 | 36954 ft | 450 kts | 149° |
| 2026-05-04 17:43 | 17.10648 | 119.47078 | 36954 ft | 450 kts | 149° |
| 2026-05-04 17:43 | 17.05171 | 119.50223 | 36953 ft | 451 kts | 149° |
| 2026-05-04 17:44 | 16.99672 | 119.53378 | 36953 ft | 453 kts | 149° |
| 2026-05-04 17:44 | 16.94169 | 119.56532 | 36954 ft | 454 kts | 149° |
| 2026-05-04 17:45 | 16.88645 | 119.59695 | 36954 ft | 455 kts | 149° |
| 2026-05-04 17:45 | 16.83102 | 119.62867 | 36954 ft | 455 kts | 149° |
| 2026-05-04 17:46 | 16.77558 | 119.66039 | 36955 ft | 455 kts | 149° |
| 2026-05-04 17:46 | 16.72042 | 119.69192 | 36954 ft | 455 kts | 149° |
| 2026-05-04 17:47 | 16.66494 | 119.72362 | 36954 ft | 455 kts | 149° |
| 2026-05-04 17:47 | 16.60990 | 119.75505 | 36954 ft | 455 kts | 149° |
| 2026-05-04 17:48 | 16.55437 | 119.78674 | 36954 ft | 455 kts | 149° |
| 2026-05-04 17:48 | 16.49914 | 119.81824 | 36954 ft | 455 kts | 149° |
| 2026-05-04 17:49 | 16.44384 | 119.84976 | 36954 ft | 455 kts | 149° |
| 2026-05-04 17:49 | 16.38846 | 119.88131 | 36954 ft | 455 kts | 149° |
| 2026-05-04 17:50 | 16.33304 | 119.91286 | 36954 ft | 455 kts | 149° |
| 2026-05-04 17:50 | 16.27758 | 119.94437 | 36954 ft | 455 kts | 149° |
| 2026-05-04 17:51 | 16.22224 | 119.97581 | 36954 ft | 455 kts | 149° |
| 2026-05-04 17:51 | 16.16688 | 120.00724 | 36954 ft | 455 kts | 149° |
| 2026-05-04 17:52 | 16.11175 | 120.03854 | 36900 ft | 453 kts | 149° |
| 2026-05-04 17:52 | 16.08447 | 120.05401 | 36602 ft | 448 kts | 149° |
| 2026-05-04 17:52 | 16.05711 | 120.06952 | 36025 ft | 445 kts | 149° |
| 2026-05-04 17:53 | 16.03008 | 120.08485 | 35381 ft | 442 kts | 149° |
| 2026-05-04 17:53 | 16.00355 | 120.09988 | 34752 ft | 439 kts | 149° |
| 2026-05-04 17:53 | 15.97675 | 120.11508 | 34115 ft | 436 kts | 149° |
| 2026-05-04 17:53 | 15.95052 | 120.12994 | 33462 ft | 435 kts | 149° |
| 2026-05-04 17:54 | 15.92409 | 120.14490 | 32687 ft | 436 kts | 149° |
| 2026-05-04 17:54 | 15.89762 | 120.15989 | 31819 ft | 439 kts | 149° |
| 2026-05-04 17:54 | 15.87054 | 120.17522 | 30886 ft | 443 kts | 149° |
| 2026-05-04 17:54 | 15.84346 | 120.19054 | 29976 ft | 446 kts | 149° |
| 2026-05-04 17:55 | 15.81664 | 120.20573 | 29336 ft | 442 kts | 149° |
| 2026-05-04 17:55 | 15.78989 | 120.22085 | 28737 ft | 438 kts | 149° |
| 2026-05-04 17:55 | 15.76334 | 120.23586 | 28101 ft | 435 kts | 148° |
| 2026-05-04 17:55 | 15.73698 | 120.25076 | 27452 ft | 433 kts | 148° |
| 2026-05-04 17:56 | 15.71078 | 120.26558 | 26806 ft | 430 kts | 148° |
| 2026-05-04 17:56 | 15.68455 | 120.28040 | 26161 ft | 428 kts | 149° |
| 2026-05-04 17:56 | 15.65854 | 120.29509 | 25476 ft | 427 kts | 149° |
| 2026-05-04 17:56 | 15.63263 | 120.30972 | 24504 ft | 433 kts | 149° |
| 2026-05-04 17:57 | 15.60599 | 120.32478 | 23783 ft | 432 kts | 149° |
| 2026-05-04 17:57 | 15.57992 | 120.33947 | 23191 ft | 428 kts | 149° |
| 2026-05-04 17:57 | 15.55403 | 120.35407 | 22618 ft | 424 kts | 149° |
| 2026-05-04 17:57 | 15.52831 | 120.36856 | 22076 ft | 419 kts | 149° |
| 2026-05-04 17:58 | 15.50305 | 120.38279 | 21676 ft | 405 kts | 149° |
| 2026-05-04 17:58 | 15.47912 | 120.39625 | 21078 ft | 387 kts | 149° |
| 2026-05-04 17:58 | 15.45628 | 120.40910 | 20752 ft | 363 kts | 149° |
| 2026-05-04 17:58 | 15.43408 | 120.42152 | 20556 ft | 358 kts | 150° |
| 2026-05-04 17:59 | 15.41166 | 120.43238 | 20414 ft | 357 kts | 155° |
| 2026-05-04 17:59 | 15.38843 | 120.44122 | 20274 ft | 357 kts | 160° |
| 2026-05-04 17:59 | 15.34175 | 120.45612 | 19511 ft | 353 kts | 162° |
| 2026-05-04 18:00 | 15.31826 | 120.46349 | 19048 ft | 352 kts | 162° |
| 2026-05-04 18:00 | 15.29484 | 120.47086 | 18610 ft | 350 kts | 162° |
| 2026-05-04 18:00 | 15.27190 | 120.47811 | 18185 ft | 345 kts | 162° |
| 2026-05-04 18:00 | 15.24930 | 120.48528 | 17543 ft | 346 kts | 162° |
| 2026-05-04 18:01 | 15.22612 | 120.49264 | 17068 ft | 345 kts | 162° |
| 2026-05-04 18:01 | 15.20361 | 120.49977 | 16693 ft | 341 kts | 162° |
| 2026-05-04 18:01 | 15.18097 | 120.50696 | 16281 ft | 339 kts | 162° |
| 2026-05-04 18:02 | 15.13632 | 120.52113 | 15451 ft | 335 kts | 163° |
| 2026-05-04 18:02 | 15.11411 | 120.52817 | 15040 ft | 333 kts | 163° |
| 2026-05-04 18:02 | 15.09204 | 120.53517 | 14631 ft | 331 kts | 163° |
| 2026-05-04 18:02 | 15.07026 | 120.54208 | 14227 ft | 329 kts | 163° |
| 2026-05-04 18:03 | 15.04837 | 120.54902 | 13822 ft | 327 kts | 163° |
| 2026-05-04 18:03 | 15.02679 | 120.55586 | 13424 ft | 325 kts | 164° |
| 2026-05-04 18:03 | 15.00548 | 120.56262 | 13044 ft | 322 kts | 164° |
| 2026-05-04 18:03 | 14.98421 | 120.56936 | 12675 ft | 319 kts | 164° |
| 2026-05-04 18:04 | 14.96315 | 120.57603 | 12305 ft | 316 kts | 164° |
| 2026-05-04 18:04 | 14.94219 | 120.58266 | 11934 ft | 313 kts | 165° |
| 2026-05-04 18:04 | 14.90131 | 120.59556 | 11232 ft | 307 kts | 164° |
| 2026-05-04 18:05 | 14.88083 | 120.60201 | 10818 ft | 306 kts | 164° |
| 2026-05-04 18:05 | 14.86089 | 120.60832 | 10534 ft | 299 kts | 164° |
| 2026-05-04 18:05 | 14.84119 | 120.61454 | 10356 ft | 290 kts | 164° |
| 2026-05-04 18:05 | 14.82219 | 120.62056 | 10169 ft | 281 kts | 164° |
| 2026-05-04 18:06 | 14.78519 | 120.63224 | 9504 ft | 277 kts | 163° |
| 2026-05-04 18:06 | 14.76689 | 120.63802 | 9147 ft | 276 kts | 163° |
| 2026-05-04 18:06 | 14.74878 | 120.64373 | 8796 ft | 275 kts | 163° |
| 2026-05-04 18:07 | 14.73053 | 120.64949 | 8443 ft | 274 kts | 163° |
| 2026-05-04 18:07 | 14.71240 | 120.65522 | 8092 ft | 272 kts | 163° |
| 2026-05-04 18:07 | 14.69429 | 120.66093 | 7744 ft | 271 kts | 162° |
| 2026-05-04 18:07 | 14.67654 | 120.66655 | 7404 ft | 269 kts | 162° |
| 2026-05-04 18:08 | 14.65859 | 120.67222 | 7058 ft | 268 kts | 162° |
| 2026-05-04 18:08 | 14.64101 | 120.67783 | 6803 ft | 262 kts | 163° |
| 2026-05-04 18:08 | 14.62387 | 120.68347 | 6519 ft | 259 kts | 160° |
| 2026-05-04 18:08 | 14.60734 | 120.69086 | 6185 ft | 258 kts | 152° |
| 2026-05-04 18:09 | 14.57636 | 120.70880 | 5652 ft | 253 kts | 149° |
| 2026-05-04 18:09 | 14.54584 | 120.72689 | 5148 ft | 254 kts | 150° |
| 2026-05-04 18:10 | 14.53052 | 120.73590 | 4960 ft | 252 kts | 150° |
| 2026-05-04 18:10 | 14.51537 | 120.74479 | 4878 ft | 249 kts | 150° |
| 2026-05-04 18:10 | 14.50060 | 120.75350 | 4697 ft | 242 kts | 149° |
| 2026-05-04 18:10 | 14.48626 | 120.76200 | 4448 ft | 234 kts | 149° |
| 2026-05-04 18:11 | 14.47255 | 120.77013 | 4176 ft | 221 kts | 149° |
| 2026-05-04 18:11 | 14.45960 | 120.77780 | 3913 ft | 214 kts | 149° |
| 2026-05-04 18:11 | 14.44703 | 120.78524 | 3846 ft | 200 kts | 149° |
| 2026-05-04 18:11 | 14.43541 | 120.79212 | 3694 ft | 190 kts | 149° |
| 2026-05-04 18:12 | 14.42429 | 120.79871 | 3518 ft | 181 kts | 149° |
| 2026-05-04 18:12 | 14.41375 | 120.80504 | 3344 ft | 173 kts | 144° |
| 2026-05-04 18:12 | 14.40611 | 120.81329 | 3169 ft | 163 kts | 117° |
| 2026-05-04 18:12 | 14.40391 | 120.82303 | 2998 ft | 152 kts | 82° |